Time;durP1;ratioP1;P1;durP2;ratioP2;P2;SDS_P1;SDS_P2;PMS_P1;PMS_P2;Temp;Humidity;BMP_temperature;BMP_pressure;BME280_temperature;BME280_humidity;BME280_pressure;Samples;Min_cycle;Max_cycle;Signal;HPM_P1;HPM_P2
2022/08/05 00:00:11;;;;;;;12.43;7.72;;;18.40;99.90;;;;;;4997646;28;20471;-68
2022/08/05 00:02:37;;;;;;;12.07;7.28;;;18.40;99.90;;;;;;4994628;28;20539;-69
2022/08/05 00:05:04;;;;;;;10.43;6.55;;;18.40;99.90;;;;;;4998235;28;20046;-68
2022/08/05 00:07:30;;;;;;;10.57;7.03;;;18.40;99.90;;;;;;4988377;28;20038;-70
2022/08/05 00:09:56;;;;;;;10.32;6.07;;;18.40;99.90;;;;;;5000483;28;20518;-69
2022/08/05 00:12:22;;;;;;;12.32;7.05;;;18.40;99.90;;;;;;5003198;28;20052;-69
2022/08/05 00:14:48;;;;;;;12.15;7.30;;;18.40;99.90;;;;;;5004962;28;20042;-72
2022/08/05 00:17:15;;;;;;;14.85;7.57;;;18.40;99.90;;;;;;4994311;28;20140;-69
2022/08/05 00:19:41;;;;;;;11.68;7.53;;;18.30;99.90;;;;;;5010069;28;20065;-68
2022/08/05 00:22:07;;;;;;;11.10;7.40;;;18.30;99.90;;;;;;5008258;28;20045;-69
2022/08/05 00:24:33;;;;;;;11.02;7.68;;;18.30;99.90;;;;;;5006336;28;20531;-68
2022/08/05 00:27:00;;;;;;;17.02;7.72;;;18.20;99.90;;;;;;5010626;28;20053;-69
2022/08/05 00:29:26;;;;;;;14.75;8.43;;;18.20;99.90;;;;;;5011017;28;20133;-70
2022/08/05 00:31:53;;;;;;;14.65;8.02;;;18.20;99.90;;;;;;5009699;28;20049;-69
2022/08/05 00:34:19;;;;;;;11.25;6.22;;;18.20;99.90;;;;;;5007719;28;20185;-69
2022/08/05 00:36:45;;;;;;;12.07;6.25;;;18.20;99.90;;;;;;5022634;28;20404;-68
2022/08/05 00:39:12;;;;;;;9.20;6.18;;;18.10;99.90;;;;;;4972790;28;20050;-69
2022/08/05 00:41:38;;;;;;;10.07;5.80;;;18.20;99.90;;;;;;4999121;28;20091;-69
2022/08/05 00:44:04;;;;;;;10.77;5.43;;;18.20;99.90;;;;;;5005685;28;20053;-69
2022/08/05 00:46:30;;;;;;;7.38;4.70;;;18.10;99.90;;;;;;5009855;28;20723;-70
2022/08/05 00:48:56;;;;;;;9.02;4.78;;;18.10;99.90;;;;;;5007916;28;20050;-68
2022/08/05 00:51:22;;;;;;;8.88;4.45;;;18.10;99.90;;;;;;4991441;28;20447;-69
2022/08/05 00:53:49;;;;;;;6.93;4.10;;;18.10;99.90;;;;;;5024800;28;20041;-71
2022/08/05 00:56:16;;;;;;;9.15;4.45;;;18.20;99.90;;;;;;5038501;28;20046;-68
2022/08/05 00:58:42;;;;;;;8.43;4.15;;;18.20;99.90;;;;;;4994154;28;20062;-68
2022/08/05 01:01:10;;;;;;;7.18;4.22;;;18.20;99.90;;;;;;5020794;28;20084;-68
2022/08/05 01:03:39;;;;;;;6.03;3.70;;;18.20;99.90;;;;;;5011727;28;20045;-68
2022/08/05 01:06:05;;;;;;;7.35;3.70;;;18.20;99.90;;;;;;5008612;28;20061;-68
2022/08/05 01:08:31;;;;;;;8.95;3.75;;;18.20;99.90;;;;;;5007677;28;20050;-69
2022/08/05 01:11:03;;;;;;;7.00;3.70;;;18.20;99.90;;;;;;4995285;28;20185;-69
2022/08/05 01:13:55;;;;;;;8.32;3.65;;;18.20;99.90;;;;;;4991082;28;20053;-68
2022/08/05 01:16:34;;;;;;;5.00;3.20;;;18.30;99.90;;;;;;5010260;28;20113;-72
2022/08/05 01:19:13;;;;;;;9.20;3.95;;;18.20;99.90;;;;;;5011474;28;20054;-69
2022/08/05 01:22:04;;;;;;;5.55;3.47;;;18.20;99.90;;;;;;4995113;28;20053;-69
2022/08/05 01:24:42;;;;;;;10.02;4.10;;;18.30;99.90;;;;;;5010157;28;20061;-68
2022/08/05 01:27:45;;;;;;;8.40;3.88;;;18.30;99.90;;;;;;5008913;28;20046;-69
2022/08/05 01:30:12;;;;;;;5.72;3.58;;;18.30;99.90;;;;;;4992613;28;20491;-68
2022/08/05 01:32:40;;;;;;;7.57;3.20;;;18.30;99.90;;;;;;5009956;28;20053;-68
2022/08/05 01:35:11;;;;;;;9.27;3.72;;;18.30;99.90;;;;;;5009303;28;20050;-69
2022/08/05 01:37:51;;;;;;;8.13;4.03;;;18.20;99.90;;;;;;5026244;28;20058;-69
2022/08/05 01:40:20;;;;;;;5.95;3.58;;;18.30;99.90;;;;;;4998907;28;20050;-70
2022/08/05 01:42:48;;;;;;;6.60;3.72;;;18.30;99.90;;;;;;5009755;28;20139;-69
2022/08/05 01:45:15;;;;;;;6.97;3.97;;;18.30;99.90;;;;;;5009336;28;20050;-68
2022/08/05 01:47:44;;;;;;;6.05;3.30;;;18.30;99.90;;;;;;5007907;28;20081;-68
2022/08/05 01:50:36;;;;;;;7.03;3.67;;;18.30;99.90;;;;;;5010842;28;20050;-68
2022/08/05 01:53:06;;;;;;;10.50;4.03;;;18.30;99.90;;;;;;4994583;28;20217;-69
2022/08/05 01:55:34;;;;;;;6.03;3.35;;;18.30;99.90;;;;;;5003420;28;20116;-68
2022/08/05 01:58:02;;;;;;;5.50;3.53;;;18.30;99.90;;;;;;5010335;28;20053;-68
2022/08/05 02:00:32;;;;;;;4.75;3.40;;;18.30;99.90;;;;;;5016254;28;20052;-69
2022/08/05 02:03:03;;;;;;;4.53;3.35;;;18.20;99.90;;;;;;5018330;28;20061;-70
2022/08/05 02:05:31;;;;;;;5.93;3.95;;;18.30;99.90;;;;;;5017827;28;20052;-68
2022/08/05 02:07:58;;;;;;;8.52;4.35;;;18.20;99.90;;;;;;4993988;28;20488;-71
2022/08/05 02:10:33;;;;;;;5.65;4.00;;;18.20;99.90;;;;;;5010574;28;20050;-69
2022/08/05 02:13:07;;;;;;;7.65;3.72;;;18.20;99.90;;;;;;5017373;28;20045;-69
2022/08/05 02:15:48;;;;;;;6.28;4.28;;;18.10;99.90;;;;;;5013033;28;20067;-69
2022/08/05 02:18:22;;;;;;;6.95;4.10;;;18.20;99.90;;;;;;5010784;28;20136;-69
2022/08/05 02:20:59;;;;;;;6.90;3.67;;;18.10;99.90;;;;;;4994530;28;20074;-68
2022/08/05 02:23:30;;;;;;;7.07;3.70;;;18.10;99.90;;;;;;5014273;28;20049;-68
2022/08/05 02:25:59;;;;;;;6.25;3.58;;;18.10;99.90;;;;;;5017066;28;20058;-69
2022/08/05 02:28:28;;;;;;;8.80;3.83;;;18.20;99.90;;;;;;5037473;28;20612;-70
2022/08/05 02:31:07;;;;;;;6.25;3.95;;;18.20;99.90;;;;;;5013952;28;20077;-68
2022/08/05 02:33:43;;;;;;;6.10;3.83;;;18.20;99.90;;;;;;5009965;28;20395;-68
2022/08/05 02:36:12;;;;;;;7.63;4.13;;;18.20;99.90;;;;;;5010354;28;20108;-68
2022/08/05 02:38:40;;;;;;;9.10;4.10;;;18.20;99.90;;;;;;5009873;28;20045;-71
2022/08/05 02:41:08;;;;;;;5.68;3.72;;;18.20;99.90;;;;;;5038796;28;20507;-69
2022/08/05 02:43:38;;;;;;;8.27;4.50;;;18.10;99.90;;;;;;5008999;28;20050;-68
2022/08/05 02:46:05;;;;;;;5.97;4.15;;;18.10;99.90;;;;;;5009845;28;20050;-70
2022/08/05 02:48:32;;;;;;;5.95;4.30;;;18.10;99.90;;;;;;5010050;28;20052;-71
2022/08/05 02:51:01;;;;;;;6.68;3.97;;;18.10;99.90;;;;;;5017364;28;20049;-68
2022/08/05 02:53:30;;;;;;;6.50;4.22;;;18.10;99.90;;;;;;5010013;28;20046;-68
2022/08/05 02:55:56;;;;;;;8.75;4.40;;;18.10;99.90;;;;;;4993677;28;20072;-68
2022/08/05 02:58:24;;;;;;;7.88;4.32;;;18.00;99.90;;;;;;5009434;28;20046;-68
2022/08/05 03:00:54;;;;;;;6.60;4.25;;;18.00;99.90;;;;;;5014867;28;20049;-70
2022/08/05 03:03:21;;;;;;;6.45;4.05;;;18.00;99.90;;;;;;5015956;28;20050;-68
2022/08/05 03:05:48;;;;;;;10.27;4.03;;;18.00;99.90;;;;;;5026861;28;20125;-69
2022/08/05 03:08:16;;;;;;;9.57;4.07;;;18.00;99.90;;;;;;5010074;28;20056;-68
2022/08/05 03:10:43;;;;;;;5.68;3.88;;;17.90;99.90;;;;;;4996645;28;20127;-69
2022/08/05 03:13:16;;;;;;;6.80;4.55;;;17.90;99.90;;;;;;5015393;28;20081;-68
2022/08/05 03:15:44;;;;;;;6.25;4.32;;;18.00;99.90;;;;;;5036291;28;20539;-68
2022/08/05 03:18:11;;;;;;;6.85;4.05;;;17.90;99.90;;;;;;4993731;28;20472;-68
2022/08/05 03:20:37;;;;;;;5.47;4.20;;;17.90;99.90;;;;;;5011785;28;20041;-69
2022/08/05 03:23:09;;;;;;;6.55;4.30;;;17.90;99.90;;;;;;4999979;28;20068;-68
2022/08/05 03:25:37;;;;;;;9.02;4.65;;;17.90;99.90;;;;;;5035622;28;20054;-69
2022/08/05 03:28:06;;;;;;;6.10;4.03;;;17.90;99.90;;;;;;5011812;28;20050;-68
2022/08/05 03:30:32;;;;;;;8.70;4.63;;;17.90;99.90;;;;;;5012962;28;20081;-68
2022/08/05 03:33:00;;;;;;;7.65;5.10;;;17.80;99.90;;;;;;5018063;28;20041;-73
2022/08/05 03:35:27;;;;;;;10.50;5.70;;;17.80;99.90;;;;;;5018843;28;20053;-69
2022/08/05 03:38:00;;;;;;;9.48;5.97;;;17.80;99.90;;;;;;5041772;28;20427;-68
2022/08/05 03:40:26;;;;;;;11.55;6.30;;;17.80;99.90;;;;;;4996741;28;20418;-68
2022/08/05 03:42:52;;;;;;;9.63;6.03;;;17.80;99.90;;;;;;5021269;28;20116;-69
2022/08/05 03:45:19;;;;;;;8.40;6.70;;;17.80;99.90;;;;;;5011846;28;20053;-68
2022/08/05 03:47:45;;;;;;;10.77;7.25;;;17.80;99.90;;;;;;5012904;28;20467;-69
2022/08/05 03:50:11;;;;;;;9.38;6.25;;;17.80;99.90;;;;;;5011410;28;20073;-68
2022/08/05 03:52:52;;;;;;;11.02;7.28;;;17.80;99.90;;;;;;5016277;28;20041;-68
2022/08/05 03:55:22;;;;;;;;;;;17.80;99.90;;;;;;5012922;28;20049;-71
2022/08/05 03:57:51;;;;;;;9.80;7.43;;;17.80;99.90;;;;;;4996695;28;19921;-69
2022/08/05 04:00:18;;;;;;;8.30;6.30;;;17.70;99.90;;;;;;5011180;28;20050;-68
2022/08/05 04:02:48;;;;;;;7.60;6.47;;;17.70;99.90;;;;;;5015258;28;20054;-68
2022/08/05 04:05:16;;;;;;;9.93;6.30;;;17.80;99.90;;;;;;5019075;28;20058;-68
2022/08/05 04:07:43;;;;;;;7.80;5.63;;;17.70;99.90;;;;;;5012533;28;20146;-69
2022/08/05 04:10:09;;;;;;;10.40;5.90;;;17.80;99.90;;;;;;5012744;28;20056;-68
2022/08/05 04:12:36;;;;;;;12.90;5.90;;;17.80;99.90;;;;;;4996437;28;20451;-68
2022/08/05 04:15:02;;;;;;;9.57;5.80;;;17.80;99.90;;;;;;5008952;28;20057;-69
2022/08/05 04:17:28;;;;;;;10.45;6.22;;;17.80;99.90;;;;;;5012671;28;20038;-68
2022/08/05 04:19:54;;;;;;;8.02;6.00;;;17.80;99.90;;;;;;5012511;28;20129;-68
2022/08/05 04:22:19;;;;;;;8.07;6.47;;;17.80;99.90;;;;;;5012592;28;20049;-69
2022/08/05 04:24:46;;;;;;;12.57;6.35;;;17.90;99.90;;;;;;5008929;28;20056;-69
2022/08/05 04:27:13;;;;;;;8.23;6.07;;;17.90;99.90;;;;;;5028776;28;20081;-69
2022/08/05 04:29:40;;;;;;;10.38;5.90;;;17.90;99.90;;;;;;4995904;28;20064;-68
2022/08/05 04:32:07;;;;;;;11.23;6.07;;;17.80;99.90;;;;;;5012384;28;20524;-69
2022/08/05 04:34:33;;;;;;;8.52;5.65;;;17.80;99.90;;;;;;5001886;28;20053;-70
2022/08/05 04:36:59;;;;;;;11.63;6.70;;;17.80;99.90;;;;;;5019394;28;20046;-69
2022/08/05 04:39:25;;;;;;;11.43;6.63;;;17.80;99.90;;;;;;5011120;28;20054;-70
2022/08/05 04:41:51;;;;;;;7.43;6.03;;;17.80;99.90;;;;;;4996135;28;20133;-71
2022/08/05 04:44:18;;;;;;;11.07;6.18;;;17.80;99.90;;;;;;4998304;28;20057;-69
2022/08/05 04:46:44;;;;;;;7.82;6.35;;;17.90;99.90;;;;;;5012015;28;20058;-69
2022/08/05 04:49:10;;;;;;;8.80;6.03;;;17.90;99.90;;;;;;5011718;28;20049;-69
2022/08/05 04:51:36;;;;;;;10.45;5.93;;;17.90;99.90;;;;;;5011944;28;20084;-68
2022/08/05 04:54:02;;;;;;;10.20;5.85;;;17.90;99.90;;;;;;5010656;28;20088;-69
2022/08/05 04:56:28;;;;;;;7.28;5.72;;;17.90;99.90;;;;;;5040080;28;20050;-68
2022/08/05 04:58:54;;;;;;;9.73;6.15;;;18.00;99.90;;;;;;5011838;28;20076;-68
2022/08/05 05:01:20;;;;;;;12.40;6.03;;;18.00;99.90;;;;;;4995168;28;20053;-68
2022/08/05 05:03:46;;;;;;;10.25;7.13;;;18.00;99.90;;;;;;5011370;28;20382;-69
2022/08/05 05:06:12;;;;;;;7.93;5.90;;;18.00;99.90;;;;;;5004996;28;20049;-69
2022/08/05 05:08:38;;;;;;;10.30;5.97;;;18.00;99.90;;;;;;5016705;28;20086;-68
2022/08/05 05:11:05;;;;;;;10.50;6.13;;;18.00;99.90;;;;;;5011753;28;20045;-68
2022/08/05 05:13:31;;;;;;;9.05;6.68;;;18.00;99.90;;;;;;4994920;28;20050;-69
2022/08/05 05:15:57;;;;;;;8.10;6.15;;;18.10;99.90;;;;;;5012439;28;20499;-68
2022/08/05 05:18:24;;;;;;;10.25;5.85;;;18.10;99.90;;;;;;5000028;28;20054;-68
2022/08/05 05:20:50;;;;;;;11.82;6.00;;;18.10;99.90;;;;;;5011857;28;20184;-69
2022/08/05 05:23:16;;;;;;;8.40;5.30;;;18.10;99.90;;;;;;4994572;28;20133;-68
2022/08/05 05:25:43;;;;;;;6.10;5.35;;;18.20;99.90;;;;;;5011128;28;20054;-69
2022/08/05 05:28:11;;;;;;;11.60;5.55;;;18.30;99.90;;;;;;5024179;28;20416;-70
2022/08/05 05:30:38;;;;;;;8.02;5.80;;;18.20;99.90;;;;;;5010346;28;20057;-69
2022/08/05 05:33:06;;;;;;;8.02;5.40;;;18.70;99.90;;;;;;5009643;28;20386;-68
2022/08/05 05:35:32;;;;;;;9.48;5.68;;;18.30;99.90;;;;;;5010451;28;20501;-69
2022/08/05 05:38:01;;;;;;;8.80;5.18;;;18.30;99.90;;;;;;5014910;28;20077;-69
2022/08/05 05:40:29;;;;;;;9.57;5.57;;;18.30;99.90;;;;;;5003222;28;20160;-69
2022/08/05 05:42:55;;;;;;;7.63;4.88;;;18.40;99.90;;;;;;5010318;28;20457;-69
2022/08/05 05:45:21;;;;;;;8.18;5.13;;;18.30;99.90;;;;;;5010722;28;20053;-72
2022/08/05 05:47:48;;;;;;;6.75;5.13;;;18.30;99.90;;;;;;4992324;28;20409;-69
2022/08/05 05:50:15;;;;;;;8.68;5.15;;;18.40;99.90;;;;;;5017257;28;20045;-69
2022/08/05 05:52:42;;;;;;;7.85;5.10;;;18.40;99.90;;;;;;5010457;28;20495;-68
2022/08/05 05:55:13;;;;;;;8.38;4.80;;;18.40;99.90;;;;;;5008544;28;20512;-68
2022/08/05 05:57:41;;;;;;;7.30;4.30;;;18.50;99.90;;;;;;5010955;28;20448;-70
2022/08/05 06:00:09;;;;;;;9.02;3.83;;;18.50;99.90;;;;;;4999922;28;20057;-68
2022/08/05 06:02:35;;;;;;;5.45;3.40;;;18.50;99.90;;;;;;5010780;28;20653;-68
2022/08/05 06:05:01;;;;;;;6.28;4.50;;;18.50;99.90;;;;;;5008822;28;20174;-72
2022/08/05 06:07:27;;;;;;;7.25;4.05;;;18.40;99.90;;;;;;5010592;28;20049;-69
2022/08/05 06:09:53;;;;;;;6.43;4.20;;;18.50;99.90;;;;;;5021318;28;20053;-68
2022/08/05 06:12:20;;;;;;;7.95;4.70;;;18.40;99.90;;;;;;5013045;28;20049;-68
2022/08/05 06:14:46;;;;;;;6.57;4.75;;;18.40;99.90;;;;;;5009926;28;20058;-70
2022/08/05 06:17:12;;;;;;;6.88;4.75;;;18.30;99.90;;;;;;5009985;28;20057;-68
2022/08/05 06:19:39;;;;;;;6.20;4.90;;;18.30;99.90;;;;;;5011376;28;20476;-70
2022/08/05 06:22:06;;;;;;;7.68;5.18;;;18.20;99.90;;;;;;5020093;28;20534;-68
2022/08/05 06:24:34;;;;;;;12.23;5.72;;;18.20;99.90;;;;;;4993359;28;20061;-68
2022/08/05 06:27:01;;;;;;;7.40;5.28;;;18.30;99.90;;;;;;5009953;28;20447;-69
2022/08/05 06:29:27;;;;;;;9.20;5.57;;;18.30;99.90;;;;;;5011485;28;20054;-70
2022/08/05 06:31:54;;;;;;;5.82;5.22;;;18.30;99.90;;;;;;5011548;28;20412;-69
2022/08/05 06:34:20;;;;;;;7.70;5.47;;;18.40;99.90;;;;;;5021895;28;20045;-70
2022/08/05 06:36:46;;;;;;;8.63;5.20;;;18.40;99.90;;;;;;5011232;28;20050;-69
2022/08/05 06:39:12;;;;;;;7.70;5.13;;;18.70;99.90;;;;;;4994444;28;20049;-68
2022/08/05 06:41:38;;;;;;;6.75;4.80;;;18.80;99.90;;;;;;5016572;28;20038;-71
2022/08/05 06:44:05;;;;;;;7.45;4.82;;;19.00;99.90;;;;;;5022741;28;20447;-68
2022/08/05 06:46:31;;;;;;;7.15;4.90;;;19.00;99.90;;;;;;5005915;28;20054;-68
2022/08/05 06:48:58;;;;;;;6.93;4.57;;;19.10;99.90;;;;;;5002369;28;20053;-70
2022/08/05 06:51:24;;;;;;;5.63;4.18;;;19.10;99.90;;;;;;5006788;28;20057;-69
2022/08/05 06:53:50;;;;;;;4.68;4.15;;;19.20;99.90;;;;;;4985898;28;20072;-68
2022/08/05 06:56:18;;;;;;;6.75;3.67;;;19.30;99.90;;;;;;5008592;28;20041;-71
2022/08/05 06:58:44;;;;;;;5.20;3.40;;;19.50;99.90;;;;;;5036518;28;20107;-69
2022/08/05 07:01:10;;;;;;;6.95;4.22;;;19.70;99.90;;;;;;4992996;28;20054;-69
2022/08/05 07:03:37;;;;;;;4.70;3.72;;;19.80;99.90;;;;;;5012164;28;20053;-69
2022/08/05 07:06:03;;;;;;;5.05;3.40;;;19.80;99.90;;;;;;5012818;28;20492;-68
2022/08/05 07:08:29;;;;;;;5.60;3.33;;;19.70;99.90;;;;;;5013031;28;20127;-68
2022/08/05 07:10:56;;;;;;;4.00;3.03;;;19.80;99.90;;;;;;5013989;28;20046;-69
2022/08/05 07:18:51;;;;;;;3.83;2.58;;;20.00;99.90;;;;;;5016938;28;20469;-75
2022/08/05 07:21:17;;;;;;;6.55;3.17;;;19.50;99.90;;;;;;5024188;28;20631;-72
2022/08/05 07:23:43;;;;;;;3.58;2.42;;;20.00;99.90;;;;;;5015159;28;20411;-70
2022/08/05 07:26:09;;;;;;;3.35;2.28;;;20.00;99.90;;;;;;5028979;28;20050;-70
2022/08/05 07:28:35;;;;;;;3.05;2.40;;;20.10;99.90;;;;;;5021124;28;20050;-70
2022/08/05 07:31:01;;;;;;;4.45;2.63;;;20.10;99.90;;;;;;4995811;28;20050;-71
2022/08/05 07:33:27;;;;;;;5.03;2.53;;;20.20;99.90;;;;;;5018043;28;20068;-71
2022/08/05 07:35:53;;;;;;;4.30;2.20;;;20.30;99.90;;;;;;5023276;28;20497;-70
2022/08/05 07:38:19;;;;;;;3.42;2.10;;;20.50;99.90;;;;;;5013558;28;20489;-71
2022/08/05 07:40:45;;;;;;;4.35;2.00;;;20.40;99.90;;;;;;4995086;28;20049;-72
2022/08/05 07:43:14;;;;;;;2.83;2.00;;;20.50;99.90;;;;;;5012828;28;20054;-70
2022/08/05 07:45:42;;;;;;;4.47;2.17;;;20.70;99.90;;;;;;4994613;28;20481;-73
2022/08/05 07:48:10;;;;;;;4.53;1.60;;;20.80;99.90;;;;;;4996606;28;20137;-70
2022/08/05 07:50:36;;;;;;;4.97;1.63;;;20.90;99.90;;;;;;5013162;28;20224;-70
2022/08/05 07:53:02;;;;;;;1.92;1.73;;;20.90;99.90;;;;;;4993724;28;20046;-71
2022/08/05 07:55:30;;;;;;;3.85;1.50;;;21.10;99.90;;;;;;4994940;28;20127;-71
2022/08/05 07:57:57;;;;;;;2.63;1.58;;;21.00;99.90;;;;;;4996303;28;20073;-69
2022/08/05 08:00:24;;;;;;;1.75;1.33;;;20.80;99.90;;;;;;5010546;28;20121;-71
2022/08/05 08:02:50;;;;;;;2.42;1.67;;;20.80;99.90;;;;;;5012632;28;20045;-72
2022/08/05 08:05:15;;;;;;;1.85;1.67;;;20.90;99.90;;;;;;5010589;28;20092;-71
2022/08/05 08:07:41;;;;;;;1.77;1.50;;;21.00;99.90;;;;;;4995702;28;20073;-71
2022/08/05 08:10:07;;;;;;;5.28;1.67;;;21.00;99.90;;;;;;5012822;28;20053;-69
2022/08/05 08:12:34;;;;;;;2.03;1.42;;;21.10;99.90;;;;;;5010840;28;20057;-69
2022/08/05 08:15:00;;;;;;;2.65;1.60;;;21.10;99.90;;;;;;5011964;28;20096;-70
2022/08/05 08:17:26;;;;;;;2.22;1.50;;;21.00;99.90;;;;;;5009396;28;20100;-72
2022/08/05 08:19:51;;;;;;;4.13;1.70;;;21.20;99.90;;;;;;5009237;28;20049;-73
2022/08/05 08:22:17;;;;;;;5.00;1.55;;;21.30;99.90;;;;;;5010550;28;20492;-69
2022/08/05 08:24:43;;;;;;;2.67;1.38;;;21.30;99.90;;;;;;4997181;28;20045;-69
2022/08/05 08:27:09;;;;;;;2.10;1.60;;;21.30;99.90;;;;;;5019926;28;20080;-69
2022/08/05 08:29:35;;;;;;;2.88;1.52;;;21.30;99.90;;;;;;4996183;28;20129;-70
2022/08/05 08:32:01;;;;;;;2.13;1.10;;;21.50;99.90;;;;;;5011782;28;20050;-69
2022/08/05 08:34:27;;;;;;;2.35;1.42;;;21.60;99.90;;;;;;5024556;28;20487;-71
2022/08/05 08:36:54;;;;;;;2.80;1.17;;;21.40;99.90;;;;;;4993846;28;20041;-69
2022/08/05 08:39:22;;;;;;;1.67;1.20;;;21.70;99.90;;;;;;4995230;28;20518;-71
2022/08/05 08:41:49;;;;;;;4.40;1.35;;;22.00;99.90;;;;;;5014475;28;20437;-69
2022/08/05 08:44:18;;;;;;;8.55;1.75;;;21.90;99.90;;;;;;5011633;28;20404;-74
2022/08/05 08:46:47;;;;;;;2.65;1.10;;;22.20;99.90;;;;;;4995703;28;20050;-71
2022/08/05 08:49:14;;;;;;;3.47;1.08;;;22.30;99.90;;;;;;5010448;28;20108;-69
2022/08/05 08:51:46;;;;;;;2.55;1.10;;;22.30;99.90;;;;;;5012828;28;20049;-73
2022/08/05 08:54:12;;;;;;;2.10;0.82;;;22.10;99.90;;;;;;5017537;28;20084;-73
2022/08/05 08:56:39;;;;;;;1.00;0.73;;;22.10;99.90;;;;;;4995699;28;20049;-71
2022/08/05 08:59:05;;;;;;;1.55;1.10;;;22.00;99.90;;;;;;4994479;28;20053;-71
2022/08/05 09:01:32;;;;;;;2.20;0.90;;;22.00;99.90;;;;;;5015811;28;20049;-73
2022/08/05 09:03:59;;;;;;;2.45;0.90;;;22.00;99.90;;;;;;5012972;28;20050;-71
2022/08/05 09:06:30;;;;;;;2.78;1.00;;;22.30;99.90;;;;;;5012116;28;20057;-71
2022/08/05 09:08:59;;;;;;;3.85;1.08;;;22.20;99.90;;;;;;5010880;28;20053;-72
2022/08/05 09:11:25;;;;;;;1.60;0.90;;;22.10;99.90;;;;;;5010796;28;20048;-70
2022/08/05 09:13:52;;;;;;;1.00;0.90;;;22.10;99.90;;;;;;5011090;28;20512;-77
2022/08/05 09:16:19;;;;;;;2.03;1.25;;;22.00;99.90;;;;;;4995595;28;20053;-72
2022/08/05 09:18:45;;;;;;;3.40;1.38;;;21.90;99.90;;;;;;4995130;28;20511;-73
2022/08/05 09:21:11;;;;;;;2.72;1.23;;;22.00;99.90;;;;;;5010687;28;20080;-71
2022/08/05 09:23:37;;;;;;;4.10;1.25;;;22.00;99.90;;;;;;5021298;28;20041;-69
2022/08/05 09:26:07;;;;;;;2.00;1.60;;;21.70;99.90;;;;;;5010885;28;20050;-69
2022/08/05 09:28:35;;;;;;;1.67;1.57;;;21.70;99.90;;;;;;5010956;28;20504;-70
2022/08/05 09:31:12;;;;;;;2.50;1.38;;;21.70;99.90;;;;;;5011608;28;20121;-72
2022/08/05 09:34:02;;;;;;;1.52;1.05;;;21.60;99.90;;;;;;4984342;28;20038;-70
2022/08/05 09:36:51;;;;;;;3.73;1.10;;;21.60;99.90;;;;;;4998951;28;20046;-71
2022/08/05 09:39:18;;;;;;;3.25;1.45;;;21.60;99.90;;;;;;5027242;28;20073;-69
2022/08/05 09:41:58;;;;;;;2.60;1.08;;;21.50;99.90;;;;;;5010518;28;20046;-71
2022/08/05 09:44:39;;;;;;;3.47;1.23;;;21.60;99.90;;;;;;5019966;28;20042;-69
2022/08/05 09:47:13;;;;;;;2.60;0.95;;;21.50;99.90;;;;;;5011327;28;20049;-70
2022/08/05 09:49:45;;;;;;;4.90;0.90;;;21.60;99.90;;;;;;5010954;28;20050;-71
2022/08/05 09:52:27;;;;;;;2.88;0.88;;;21.70;99.90;;;;;;5011395;28;20048;-71
2022/08/05 09:55:05;;;;;;;2.50;0.90;;;21.80;99.90;;;;;;5036462;28;20145;-70
2022/08/05 09:57:44;;;;;;;3.90;0.90;;;21.70;99.90;;;;;;5038856;28;20045;-70
2022/08/05 10:00:12;;;;;;;1.15;0.60;;;21.50;99.90;;;;;;5035304;28;20056;-70
2022/08/05 10:02:52;;;;;;;1.10;0.70;;;21.60;99.90;;;;;;5010548;28;20131;-70
2022/08/05 10:05:21;;;;;;;1.45;0.80;;;21.60;99.90;;;;;;5009979;28;20484;-71
2022/08/05 10:07:49;;;;;;;2.30;0.80;;;21.70;99.90;;;;;;5009664;28;20423;-71
2022/08/05 10:10:17;;;;;;;1.95;0.90;;;21.80;99.90;;;;;;5024414;28;20128;-71
2022/08/05 10:12:46;;;;;;;4.25;1.10;;;21.70;99.90;;;;;;5012967;28;20056;-70
2022/08/05 10:15:18;;;;;;;2.35;0.70;;;21.40;99.90;;;;;;5005352;28;20057;-70
2022/08/05 10:18:02;;;;;;;0.70;0.70;;;21.40;99.90;;;;;;5004741;28;20053;-72
2022/08/05 10:20:30;;;;;;;1.33;0.60;;;21.60;99.90;;;;;;5010551;28;20053;-70
2022/08/05 10:22:56;;;;;;;1.88;1.00;;;22.10;99.90;;;;;;5015926;28;20064;-70
2022/08/05 10:25:23;;;;;;;1.45;1.00;;;22.30;99.90;;;;;;5012306;28;20046;-69
2022/08/05 10:27:49;;;;;;;2.50;1.00;;;22.20;99.90;;;;;;5010352;28;20411;-72
2022/08/05 10:30:15;;;;;;;1.25;0.65;;;22.10;99.90;;;;;;5011693;28;20060;-72
2022/08/05 10:32:41;;;;;;;3.40;1.00;;;22.20;99.90;;;;;;5011873;28;20160;-75
2022/08/05 10:35:07;;;;;;;2.10;0.80;;;22.70;99.90;;;;;;5014678;28;20068;-73
2022/08/05 10:37:33;;;;;;;1.83;0.60;;;22.60;99.90;;;;;;5002268;28;20100;-72
2022/08/05 10:40:04;;;;;;;1.55;0.70;;;22.50;99.90;;;;;;4998649;28;20042;-74
2022/08/05 10:42:35;;;;;;;3.22;0.70;;;22.70;99.50;;;;;;5012966;28;20042;-75
2022/08/05 10:45:05;;;;;;;3.78;0.80;;;23.00;97.40;;;;;;5020740;28;20065;-74
2022/08/05 10:47:35;;;;;;;1.08;0.60;;;22.70;98.20;;;;;;5013967;28;20054;-74
2022/08/05 10:50:10;;;;;;;1.58;0.50;;;22.60;98.80;;;;;;5013235;28;20054;-74
2022/08/05 10:52:51;;;;;;;1.92;0.70;;;22.70;98.10;;;;;;5012872;28;20081;-76
2022/08/05 10:55:17;;;;;;;2.50;0.80;;;23.00;97.50;;;;;;5022796;28;20099;-73
2022/08/05 10:57:44;;;;;;;1.88;0.55;;;23.10;96.50;;;;;;5017199;28;20081;-73
2022/08/05 11:00:15;;;;;;;1.85;0.60;;;23.30;94.80;;;;;;4997347;28;20111;-74
2022/08/05 11:03:06;;;;;;;0.73;0.52;;;23.40;95.10;;;;;;5013836;28;20822;-73
2022/08/05 11:05:33;;;;;;;1.25;0.50;;;23.10;92.60;;;;;;5017867;28;20053;-75
2022/08/05 11:08:01;;;;;;;1.38;0.45;;;23.20;93.20;;;;;;5037157;28;20068;-74
2022/08/05 11:10:29;;;;;;;3.30;0.70;;;23.30;92.20;;;;;;5008491;28;20060;-73
2022/08/05 11:12:56;;;;;;;1.75;0.52;;;23.40;90.40;;;;;;4997230;28;20049;-74
2022/08/05 11:15:48;;;;;;;1.95;0.68;;;23.60;90.80;;;;;;5001433;28;20049;-75
2022/08/05 11:18:14;;;;;;;1.75;0.50;;;23.60;84.10;;;;;;5017950;28;20046;-74
2022/08/05 11:20:45;;;;;;;1.88;0.50;;;23.50;85.10;;;;;;5006484;28;20045;-73
2022/08/05 11:23:31;;;;;;;1.35;0.45;;;23.60;79.30;;;;;;5011579;28;20072;-74
2022/08/05 11:26:07;;;;;;;0.60;0.43;;;23.80;76.10;;;;;;5016072;28;20058;-70
2022/08/05 11:28:33;;;;;;;1.27;0.50;;;23.80;74.60;;;;;;4996110;28;20428;-70
2022/08/05 11:31:02;;;;;;;2.40;0.40;;;23.70;77.70;;;;;;5012799;28;20053;-71
2022/08/05 11:33:30;;;;;;;0.50;0.40;;;23.80;74.90;;;;;;5012775;28;20053;-72
2022/08/05 11:35:57;;;;;;;1.27;0.35;;;23.70;74.00;;;;;;5014430;28;20361;-70
2022/08/05 11:38:41;;;;;;;1.33;0.35;;;23.70;74.10;;;;;;4971450;28;20093;-75
2022/08/05 11:41:23;;;;;;;2.40;0.45;;;23.80;72.30;;;;;;4987565;28;20046;-69
2022/08/05 11:44:02;;;;;;;2.17;0.50;;;23.30;71.20;;;;;;5025951;28;20038;-74
2022/08/05 11:46:30;;;;;;;5.47;0.50;;;23.20;72.90;;;;;;5001221;28;20049;-75
2022/08/05 11:48:57;;;;;;;0.63;0.43;;;23.40;74.80;;;;;;4977154;28;20480;-70
2022/08/05 11:51:25;;;;;;;1.70;0.52;;;23.40;72.50;;;;;;4994221;28;20121;-69
2022/08/05 11:53:52;;;;;;;1.20;0.47;;;23.20;70.50;;;;;;4997503;28;20505;-73
2022/08/05 11:56:19;;;;;;;1.13;0.45;;;23.70;70.10;;;;;;5007054;28;20049;-72
2022/08/05 11:58:47;;;;;;;0.95;0.30;;;23.60;66.50;;;;;;4995534;28;20060;-68
2022/08/05 12:01:14;;;;;;;2.47;0.40;;;23.70;68.30;;;;;;4996664;28;20404;-71
2022/08/05 12:03:51;;;;;;;2.42;0.40;;;23.90;69.10;;;;;;5001978;28;20058;-71
2022/08/05 12:06:22;;;;;;;2.40;0.52;;;23.80;68.10;;;;;;5023091;28;20058;-72
2022/08/05 12:08:50;;;;;;;2.80;0.50;;;23.60;65.50;;;;;;5026363;28;20046;-71
2022/08/05 12:11:30;;;;;;;2.83;0.50;;;23.60;66.40;;;;;;4997423;28;20065;-69
2022/08/05 12:13:58;;;;;;;1.50;0.30;;;23.20;66.80;;;;;;4987885;28;20512;-69
2022/08/05 12:16:33;;;;;;;3.00;0.40;;;23.10;68.60;;;;;;5002335;28;20043;-70
2022/08/05 12:18:59;;;;;;;1.27;0.55;;;23.30;70.10;;;;;;5017619;28;20050;-72
2022/08/05 12:21:28;;;;;;;2.30;0.55;;;23.30;70.40;;;;;;4992997;28;20377;-73
2022/08/05 12:23:58;;;;;;;1.42;0.40;;;23.30;69.30;;;;;;5009032;28;20046;-72
2022/08/05 12:26:29;;;;;;;0.65;0.45;;;23.60;68.00;;;;;;5026057;28;20543;-72
2022/08/05 12:28:54;;;;;;;;;;;23.90;66.00;;;;;;4971410;28;20050;-74
2022/08/05 12:31:21;;;;;;;3.20;0.60;;;24.40;65.50;;;;;;5004298;28;19976;-72
2022/08/05 12:33:47;;;;;;;1.23;0.60;;;23.80;66.00;;;;;;4992566;28;20050;-72
2022/08/05 12:36:14;;;;;;;1.67;0.50;;;23.80;67.90;;;;;;4994484;28;20086;-74
2022/08/05 12:38:40;;;;;;;1.17;0.60;;;23.60;68.30;;;;;;4990975;28;20046;-73
2022/08/05 12:41:12;;;;;;;2.20;0.50;;;23.70;69.00;;;;;;4991269;28;20050;-71
2022/08/05 12:43:57;;;;;;;2.83;0.60;;;23.90;65.70;;;;;;4971908;28;20055;-72
2022/08/05 12:46:25;;;;;;;1.15;0.50;;;24.20;66.40;;;;;;4980859;28;20379;-71
2022/08/05 12:49:04;;;;;;;2.85;0.60;;;24.40;69.30;;;;;;5006429;28;20045;-73
2022/08/05 12:51:31;;;;;;;2.60;0.52;;;24.40;70.00;;;;;;5002094;28;20046;-71
2022/08/05 12:54:00;;;;;;;4.40;0.50;;;24.40;68.80;;;;;;4974160;28;20501;-70
2022/08/05 12:56:27;;;;;;;1.20;0.50;;;24.20;66.90;;;;;;4990617;28;20058;-71
2022/08/05 12:59:23;;;;;;;0.98;0.50;;;23.70;66.90;;;;;;4986904;28;20480;-71